createdAt,value
2022-10-18T00:02:05.492Z,34.30
2022-10-18T00:04:32.242Z,33.50
2022-10-18T00:06:58.482Z,31.67
2022-10-18T00:09:24.576Z,33.70
2022-10-18T00:11:51.042Z,33.28
2022-10-18T00:14:17.188Z,30.75
2022-10-18T00:16:43.654Z,30.42
2022-10-18T00:19:09.798Z,35.45
2022-10-18T00:21:35.985Z,33.88
2022-10-18T00:24:02.897Z,34.67
2022-10-18T00:26:29.936Z,36.58
2022-10-18T00:29:01.748Z,35.72
2022-10-18T00:31:30.162Z,34.72
2022-10-18T00:33:58.964Z,35.17
2022-10-18T00:36:26.700Z,33.67
2022-10-18T00:38:54.306Z,39.10
2022-10-18T00:41:23.513Z,32.35
2022-10-18T00:43:59.100Z,31.67
2022-10-18T00:46:28.258Z,30.80
2022-10-18T00:48:56.456Z,31.15
2022-10-18T00:51:24.957Z,32.55
2022-10-18T00:53:51.550Z,31.58
2022-10-18T00:56:18.691Z,30.48
2022-10-18T00:58:47.113Z,30.00
2022-10-18T01:01:14.739Z,28.27
2022-10-18T01:03:41.787Z,28.67
2022-10-18T01:06:08.795Z,26.85
2022-10-18T01:08:45.345Z,30.15
2022-10-18T01:11:26.836Z,22.63
2022-10-18T01:14:01.818Z,25.13
2022-10-18T01:16:27.883Z,22.75
2022-10-18T01:19:15.783Z,22.27
2022-10-18T01:21:57.062Z,22.80
2022-10-18T01:24:32.792Z,21.50
2022-10-18T01:27:25.321Z,20.77
2022-10-18T01:30:23.381Z,19.35
2022-10-18T01:32:54.584Z,19.70
2022-10-18T01:35:31.151Z,20.13
2022-10-18T01:38:00.922Z,18.20
2022-10-18T01:40:28.957Z,19.17
2022-10-18T01:42:55.061Z,19.98
2022-10-18T01:45:22.654Z,23.00
2022-10-18T01:47:50.497Z,19.50
2022-10-18T01:50:31.613Z,21.75
2022-10-18T01:52:58.280Z,21.77
2022-10-18T01:55:32.832Z,21.83
2022-10-18T01:58:07.687Z,23.13
2022-10-18T02:00:41.844Z,22.60
2022-10-18T02:03:22.637Z,20.95
2022-10-18T02:06:06.120Z,20.40
2022-10-18T02:08:41.987Z,19.92
2022-10-18T02:11:11.699Z,19.67
2022-10-18T02:13:57.768Z,20.02
2022-10-18T02:16:34.349Z,20.60
2022-10-18T02:19:04.898Z,29.50
2022-10-18T02:21:31.899Z,20.60
2022-10-18T02:24:00.026Z,23.48
2022-10-18T02:26:26.140Z,22.20
2022-10-18T02:28:52.225Z,23.08
2022-10-18T02:31:23.764Z,22.23
2022-10-18T02:34:08.580Z,26.05
2022-10-18T02:36:42.182Z,21.08
2022-10-18T02:39:14.009Z,20.83
2022-10-18T02:41:40.731Z,21.58
2022-10-18T02:44:06.772Z,19.85
2022-10-18T02:46:33.727Z,18.83
2022-10-18T02:48:59.714Z,18.27
2022-10-18T02:51:25.889Z,20.20
2022-10-18T02:53:52.071Z,19.17
2022-10-18T02:56:18.378Z,20.83
2022-10-18T02:58:44.986Z,17.48
2022-10-18T03:01:11.100Z,17.83
2022-10-18T03:03:37.929Z,16.95
2022-10-18T03:06:04.387Z,17.60
2022-10-18T03:08:30.424Z,16.27
2022-10-18T03:10:56.457Z,16.52
2022-10-18T03:13:22.568Z,15.15
2022-10-18T03:15:48.689Z,15.52
2022-10-18T03:18:15.236Z,14.98
2022-10-18T03:20:41.313Z,16.23
2022-10-18T03:23:07.340Z,16.40
2022-10-18T03:25:33.879Z,15.07
2022-10-18T03:28:00.164Z,14.60
2022-10-18T03:30:26.287Z,14.30
2022-10-18T03:32:53.557Z,15.98
2022-10-18T03:35:19.983Z,15.95
2022-10-18T03:37:46.137Z,15.45
2022-10-18T03:40:12.225Z,15.45
2022-10-18T03:42:38.290Z,14.90
2022-10-18T03:45:04.889Z,15.93
2022-10-18T03:47:31.194Z,15.57
2022-10-18T03:49:57.670Z,15.45
2022-10-18T03:52:24.272Z,14.63
2022-10-18T03:54:50.366Z,15.10
2022-10-18T03:57:16.443Z,14.55
2022-10-18T03:59:42.865Z,13.43
2022-10-18T04:02:09.419Z,14.00
2022-10-18T04:04:35.437Z,14.80
2022-10-18T04:07:01.502Z,14.57
2022-10-18T04:09:27.559Z,14.15
2022-10-18T04:11:53.601Z,15.32
2022-10-18T04:14:23.095Z,15.63
2022-10-18T04:16:49.183Z,14.55
2022-10-18T04:19:15.439Z,15.02
2022-10-18T04:21:42.785Z,16.73
2022-10-18T04:24:10.354Z,16.60
2022-10-18T04:26:37.576Z,18.23
2022-10-18T04:29:04.183Z,18.80
2022-10-18T04:31:30.330Z,19.05
2022-10-18T04:33:56.355Z,21.08
2022-10-18T04:36:22.409Z,18.73
2022-10-18T04:38:48.453Z,17.92
2022-10-18T04:41:14.513Z,17.45
2022-10-18T04:43:43.078Z,16.73
2022-10-18T04:46:09.237Z,17.25
2022-10-18T04:48:35.289Z,18.30
2022-10-18T04:51:01.369Z,16.63
2022-10-18T04:53:27.459Z,16.73
2022-10-18T04:55:54.777Z,16.92
2022-10-18T04:58:20.902Z,18.33
2022-10-18T05:00:47.110Z,18.55
2022-10-18T05:03:14.097Z,20.33
2022-10-18T05:05:57.161Z,17.08
2022-10-18T05:08:26.423Z,17.90
2022-10-18T05:10:52.573Z,19.52
2022-10-18T05:13:18.611Z,17.15
2022-10-18T05:15:46.770Z,20.52
2022-10-18T05:18:12.926Z,18.85
2022-10-18T05:20:39.781Z,21.25
2022-10-18T05:23:05.886Z,19.55
2022-10-18T05:25:32.081Z,22.05
2022-10-18T05:28:00.919Z,19.48
2022-10-18T05:30:29.337Z,17.45
2022-10-18T05:32:55.385Z,18.17
2022-10-18T05:35:21.418Z,18.33
2022-10-18T05:37:49.512Z,29.15
2022-10-18T05:40:15.681Z,85.45
2022-10-18T05:42:42.206Z,158.35
2022-10-18T05:45:08.593Z,90.32
2022-10-18T05:50:01.689Z,24.23
2022-10-18T05:52:28.113Z,21.13
2022-10-18T05:54:54.215Z,19.15
2022-10-18T05:57:20.303Z,17.88
2022-10-18T05:59:46.305Z,18.52
2022-10-18T06:02:12.468Z,19.52
2022-10-18T06:04:38.550Z,20.60
2022-10-18T06:07:08.849Z,16.90
2022-10-18T06:09:35.022Z,16.40
2022-10-18T06:12:01.176Z,14.98
2022-10-18T06:14:27.243Z,14.50
2022-10-18T06:16:53.411Z,18.65
2022-10-18T06:19:19.556Z,15.75
2022-10-18T06:21:45.734Z,17.17
2022-10-18T06:24:11.765Z,14.80
2022-10-18T06:26:38.097Z,14.80
2022-10-18T06:29:04.164Z,14.57
2022-10-18T06:31:30.544Z,16.52
2022-10-18T06:33:57.798Z,15.00
2022-10-18T06:36:24.590Z,14.20
2022-10-18T06:38:51.117Z,14.02
2022-10-18T06:41:19.121Z,15.00
2022-10-18T06:43:49.376Z,13.73
2022-10-18T06:46:15.779Z,13.30
2022-10-18T06:48:41.934Z,14.38
2022-10-18T06:51:09.022Z,13.48
2022-10-18T06:53:43.947Z,13.48
2022-10-18T06:56:12.400Z,13.45
2022-10-18T06:58:39.000Z,13.45
2022-10-18T07:01:07.433Z,12.40
2022-10-18T07:03:37.084Z,11.63
2022-10-18T07:06:05.214Z,11.48
2022-10-18T07:08:31.682Z,11.27
2022-10-18T07:10:57.935Z,11.75
2022-10-18T07:13:33.629Z,16.55
2022-10-18T07:16:10.626Z,9.43
2022-10-18T07:18:43.980Z,8.90
2022-10-18T07:21:14.853Z,9.05
2022-10-18T07:23:42.807Z,8.07
2022-10-18T07:26:16.207Z,9.40
2022-10-18T07:28:44.287Z,8.00
2022-10-18T07:31:11.704Z,7.43
2022-10-18T07:33:38.043Z,7.38
2022-10-18T07:36:07.273Z,7.88
2022-10-18T07:38:34.451Z,8.75
2022-10-18T07:41:02.977Z,7.20
2022-10-18T07:43:29.490Z,6.93
2022-10-18T07:45:58.200Z,7.65
2022-10-18T07:48:24.702Z,8.07
2022-10-18T07:50:51.259Z,8.30
2022-10-18T07:53:17.596Z,9.48
2022-10-18T07:55:44.225Z,16.88
2022-10-18T07:58:13.249Z,29.73
2022-10-18T08:00:39.688Z,30.00
2022-10-18T08:03:06.032Z,31.33
2022-10-18T08:08:05.758Z,17.23
2022-10-18T08:10:35.171Z,16.80
2022-10-18T08:13:01.292Z,11.43
2022-10-18T08:15:27.399Z,10.05
2022-10-18T08:17:53.417Z,8.95
2022-10-18T08:20:30.756Z,6.90
2022-10-18T08:23:00.171Z,5.95
2022-10-18T08:25:27.794Z,4.07
2022-10-18T08:27:53.932Z,3.85
2022-10-18T08:30:20.270Z,3.00
2022-10-18T08:32:46.372Z,2.97
2022-10-18T08:35:12.493Z,2.70
2022-10-18T08:37:39.572Z,2.50
2022-10-18T08:40:06.334Z,2.55
2022-10-18T08:42:44.611Z,2.50
2022-10-18T08:45:17.794Z,2.28
2022-10-18T08:47:57.188Z,2.20
2022-10-18T08:50:31.267Z,2.33
2022-10-18T08:53:19.999Z,1.92
2022-10-18T08:55:51.864Z,1.70
2022-10-18T08:58:21.890Z,1.38
2022-10-18T09:00:53.740Z,3.75
2022-10-18T09:03:35.357Z,17.27
2022-10-18T09:06:21.169Z,2.88
2022-10-18T09:09:01.208Z,2.22
2022-10-18T09:12:03.145Z,1.73
2022-10-18T09:14:41.498Z,1.75
2022-10-18T09:17:23.591Z,1.50
2022-10-18T09:19:55.532Z,2.08
2022-10-18T09:22:49.339Z,1.88
2022-10-18T09:25:23.194Z,1.92
2022-10-18T09:28:14.129Z,1.65
2022-10-18T09:30:49.364Z,2.78
2022-10-18T09:33:24.494Z,2.53
2022-10-18T09:35:56.278Z,2.03
2022-10-18T09:38:27.317Z,1.92
2022-10-18T09:41:08.108Z,1.60
2022-10-18T09:43:58.961Z,2.20
2022-10-18T09:46:29.779Z,2.03
2022-10-18T09:49:01.066Z,1.85
2022-10-18T09:51:34.177Z,2.85
2022-10-18T09:54:21.656Z,2.38
2022-10-18T09:57:14.378Z,1.70
2022-10-18T09:59:47.549Z,1.60
2022-10-18T10:02:16.767Z,1.65
2022-10-18T10:04:42.854Z,2.20
2022-10-18T10:07:14.552Z,1.83
2022-10-18T10:10:10.328Z,1.63
2022-10-18T10:12:38.839Z,1.30
2022-10-18T10:15:22.141Z,1.50
2022-10-18T10:18:04.865Z,1.55
2022-10-18T10:20:36.466Z,1.45
2022-10-18T10:23:20.255Z,1.60
2022-10-18T10:25:51.921Z,1.70
2022-10-18T10:28:29.302Z,1.83
2022-10-18T10:31:17.388Z,1.55
2022-10-18T10:33:46.958Z,1.63
2022-10-18T10:36:18.815Z,1.40
2022-10-18T10:38:45.043Z,1.48
2022-10-18T10:41:22.630Z,1.75
2022-10-18T10:43:49.937Z,1.38
2022-10-18T10:46:18.700Z,1.50
2022-10-18T10:49:15.398Z,1.35
2022-10-18T10:51:42.988Z,1.48
2022-10-18T10:54:24.177Z,1.77
2022-10-18T10:56:59.289Z,1.40
2022-10-18T10:59:29.656Z,1.65
2022-10-18T11:02:22.815Z,1.55
2022-10-18T11:04:50.963Z,1.55
2022-10-18T11:07:32.590Z,1.48
2022-10-18T11:10:11.161Z,1.65
2022-10-18T11:12:44.378Z,1.90
2022-10-18T11:15:13.397Z,1.80
2022-10-18T11:17:42.498Z,1.05
2022-10-18T11:20:19.884Z,1.95
2022-10-18T11:22:59.296Z,1.52
2022-10-18T11:25:52.860Z,1.42
2022-10-18T11:28:43.692Z,2.03
2022-10-18T11:31:22.011Z,1.67
2022-10-18T11:34:19.904Z,3.95
2022-10-18T11:37:09.700Z,1.55
2022-10-18T11:40:03.044Z,1.23
2022-10-18T11:42:39.082Z,1.65
2022-10-18T11:45:33.732Z,3.47
2022-10-18T11:48:24.640Z,1.70
2022-10-18T11:51:09.726Z,1.27
2022-10-18T11:53:57.760Z,1.27
2022-10-18T11:56:49.400Z,1.40
2022-10-18T11:59:45.538Z,1.35
2022-10-18T12:02:23.816Z,1.50
2022-10-18T12:05:18.915Z,1.23
2022-10-18T12:08:07.807Z,1.17
2022-10-18T12:10:44.309Z,1.27
2022-10-18T12:13:28.855Z,1.42
2022-10-18T12:15:55.305Z,1.30
2022-10-18T12:18:26.541Z,1.83
2022-10-18T12:20:57.785Z,1.40
2022-10-18T12:23:35.430Z,1.13
2022-10-18T12:26:05.098Z,1.02
2022-10-18T12:29:00.421Z,1.15
2022-10-18T12:31:33.613Z,0.90
2022-10-18T12:34:23.474Z,1.15
2022-10-18T12:36:58.953Z,1.13
2022-10-18T12:39:38.954Z,2.00
2022-10-18T12:42:28.357Z,1.10
2022-10-18T12:45:25.125Z,1.10
2022-10-18T12:47:52.304Z,0.90
2022-10-18T12:50:39.824Z,1.05
2022-10-18T12:53:11.994Z,1.33
2022-10-18T12:55:40.912Z,1.00
2022-10-18T12:58:22.335Z,1.02
2022-10-18T13:00:48.537Z,1.35
2022-10-18T13:03:17.503Z,1.98
2022-10-18T13:05:53.116Z,1.67
2022-10-18T13:08:37.651Z,1.38
2022-10-18T13:11:10.004Z,1.45
2022-10-18T13:14:09.199Z,1.50
2022-10-18T13:16:45.581Z,1.40
2022-10-18T13:19:39.316Z,1.77
2022-10-18T13:22:27.869Z,1.65
2022-10-18T13:25:05.267Z,1.80
2022-10-18T13:27:49.078Z,1.20
2022-10-18T13:30:37.018Z,1.05
2022-10-18T13:33:26.805Z,1.20
2022-10-18T13:36:21.616Z,1.33
2022-10-18T13:38:56.910Z,1.23
2022-10-18T13:41:32.703Z,1.92
2022-10-18T13:44:31.269Z,1.73
2022-10-18T13:46:57.375Z,1.20
2022-10-18T13:49:23.595Z,1.50
2022-10-18T13:52:01.802Z,1.38
2022-10-18T13:55:13.454Z,1.45
2022-10-18T13:57:48.639Z,1.42
2022-10-18T14:00:33.854Z,1.15
